Terminal Aerodrome Forecast
Issued by NWS

Home | Current Version | Previous Version | Text Only | Print | Product List | Glossary On
Versions: 1 2 3 4 5 6 7 8 9 10 11 12 13 14 15 16 17 18
443
FTUS46 KSTO 201932 CCA
TAFSCK
TAF COR
KSCK 201932Z 2020/2118 16015KT 5SM -RA OVC050
     FM202100 15022G32KT 3SM RA BKN015 OVC030
     FM210100 16032G44KT P6SM -RA OVC035=

USA.gov is the U.S. government's official web portal to all federal, state and local government web resources and services.